sensor_id;sensor_type;location;lat;lon;timestamp;P1;durP1;ratioP1;P2;durP2;ratioP2
62574;SDS011;70119;45.638;11.714;2023-06-01T00:02:23;9.23;;;5.63;;
62574;SDS011;70119;45.638;11.714;2023-06-01T00:04:48;9.00;;;5.95;;
62574;SDS011;70119;45.638;11.714;2023-06-01T00:07:15;12.45;;;5.72;;
62574;SDS011;70119;45.638;11.714;2023-06-01T00:09:41;8.52;;;5.30;;
62574;SDS011;70119;45.638;11.714;2023-06-01T00:12:07;8.32;;;5.75;;
62574;SDS011;70119;45.638;11.714;2023-06-01T00:14:34;9.73;;;5.60;;
62574;SDS011;70119;45.638;11.714;2023-06-01T00:17:00;9.68;;;5.82;;
62574;SDS011;70119;45.638;11.714;2023-06-01T00:19:30;9.55;;;5.88;;
62574;SDS011;70119;45.638;11.714;2023-06-01T00:21:57;7.93;;;5.03;;
62574;SDS011;70119;45.638;11.714;2023-06-01T00:24:23;8.88;;;5.55;;
62574;SDS011;70119;45.638;11.714;2023-06-01T00:26:50;8.57;;;5.53;;
62574;SDS011;70119;45.638;11.714;2023-06-01T00:29:16;8.80;;;5.32;;
62574;SDS011;70119;45.638;11.714;2023-06-01T00:31:41;7.70;;;5.47;;
62574;SDS011;70119;45.638;11.714;2023-06-01T00:34:07;7.80;;;5.32;;
62574;SDS011;70119;45.638;11.714;2023-06-01T00:36:34;9.35;;;5.38;;
62574;SDS011;70119;45.638;11.714;2023-06-01T00:39:00;10.32;;;5.63;;
62574;SDS011;70119;45.638;11.714;2023-06-01T00:41:29;8.18;;;5.18;;
62574;SDS011;70119;45.638;11.714;2023-06-01T00:43:56;7.93;;;5.03;;
62574;SDS011;70119;45.638;11.714;2023-06-01T00:46:22;8.65;;;5.25;;
62574;SDS011;70119;45.638;11.714;2023-06-01T00:48:48;7.82;;;5.40;;
62574;SDS011;70119;45.638;11.714;2023-06-01T00:51:16;10.23;;;5.45;;
62574;SDS011;70119;45.638;11.714;2023-06-01T00:53:42;8.02;;;5.10;;
62574;SDS011;70119;45.638;11.714;2023-06-01T00:56:08;9.48;;;5.43;;
62574;SDS011;70119;45.638;11.714;2023-06-01T00:58:37;7.72;;;5.30;;
62574;SDS011;70119;45.638;11.714;2023-06-01T01:01:04;7.85;;;5.40;;
62574;SDS011;70119;45.638;11.714;2023-06-01T01:03:30;8.25;;;5.38;;
62574;SDS011;70119;45.638;11.714;2023-06-01T01:08:46;8.93;;;5.30;;
62574;SDS011;70119;45.638;11.714;2023-06-01T01:11:26;8.63;;;5.60;;
62574;SDS011;70119;45.638;11.714;2023-06-01T01:14:02;7.40;;;5.00;;
62574;SDS011;70119;45.638;11.714;2023-06-01T01:16:39;8.57;;;5.20;;
62574;SDS011;70119;45.638;11.714;2023-06-01T01:25:09;8.48;;;5.57;;
62574;SDS011;70119;45.638;11.714;2023-06-01T01:30:49;8.80;;;5.15;;
62574;SDS011;70119;45.638;11.714;2023-06-01T01:33:19;8.60;;;5.43;;
62574;SDS011;70119;45.638;11.714;2023-06-01T01:35:46;7.97;;;5.40;;
62574;SDS011;70119;45.638;11.714;2023-06-01T01:38:14;10.60;;;5.75;;
62574;SDS011;70119;45.638;11.714;2023-06-01T01:40:40;9.93;;;5.78;;
62574;SDS011;70119;45.638;11.714;2023-06-01T01:43:06;8.18;;;5.60;;
62574;SDS011;70119;45.638;11.714;2023-06-01T01:45:33;8.10;;;5.60;;
62574;SDS011;70119;45.638;11.714;2023-06-01T01:51:12;9.65;;;5.30;;
62574;SDS011;70119;45.638;11.714;2023-06-01T01:53:41;8.55;;;5.60;;
62574;SDS011;70119;45.638;11.714;2023-06-01T01:56:10;7.50;;;5.20;;
62574;SDS011;70119;45.638;11.714;2023-06-01T01:58:38;8.75;;;5.70;;
62574;SDS011;70119;45.638;11.714;2023-06-01T02:01:06;7.65;;;5.10;;
62574;SDS011;70119;45.638;11.714;2023-06-01T02:03:33;8.68;;;5.80;;
62574;SDS011;70119;45.638;11.714;2023-06-01T02:05:59;8.93;;;5.47;;
62574;SDS011;70119;45.638;11.714;2023-06-01T02:08:25;8.63;;;5.80;;
62574;SDS011;70119;45.638;11.714;2023-06-01T02:10:51;7.85;;;5.57;;
62574;SDS011;70119;45.638;11.714;2023-06-01T02:13:17;8.13;;;5.55;;
62574;SDS011;70119;45.638;11.714;2023-06-01T02:15:43;8.88;;;5.32;;
62574;SDS011;70119;45.638;11.714;2023-06-01T02:18:09;7.53;;;5.18;;
62574;SDS011;70119;45.638;11.714;2023-06-01T02:20:36;8.15;;;5.57;;
62574;SDS011;70119;45.638;11.714;2023-06-01T02:23:02;9.00;;;5.68;;
62574;SDS011;70119;45.638;11.714;2023-06-01T02:25:28;8.73;;;5.75;;
62574;SDS011;70119;45.638;11.714;2023-06-01T02:27:54;7.40;;;5.35;;
62574;SDS011;70119;45.638;11.714;2023-06-01T02:30:20;8.18;;;5.20;;
62574;SDS011;70119;45.638;11.714;2023-06-01T02:32:46;7.50;;;5.10;;
62574;SDS011;70119;45.638;11.714;2023-06-01T02:35:14;8.95;;;5.75;;
62574;SDS011;70119;45.638;11.714;2023-06-01T02:37:40;8.43;;;5.97;;
62574;SDS011;70119;45.638;11.714;2023-06-01T02:40:06;9.35;;;5.38;;
62574;SDS011;70119;45.638;11.714;2023-06-01T02:42:37;8.20;;;5.68;;
62574;SDS011;70119;45.638;11.714;2023-06-01T02:45:04;7.57;;;5.40;;
62574;SDS011;70119;45.638;11.714;2023-06-01T02:47:31;7.88;;;5.55;;
62574;SDS011;70119;45.638;11.714;2023-06-01T02:49:57;8.07;;;5.50;;
62574;SDS011;70119;45.638;11.714;2023-06-01T02:52:23;8.80;;;5.72;;
62574;SDS011;70119;45.638;11.714;2023-06-01T02:54:49;8.65;;;5.30;;
62574;SDS011;70119;45.638;11.714;2023-06-01T02:57:15;7.57;;;5.40;;
62574;SDS011;70119;45.638;11.714;2023-06-01T02:59:42;8.65;;;5.80;;
62574;SDS011;70119;45.638;11.714;2023-06-01T03:02:08;7.68;;;5.68;;
62574;SDS011;70119;45.638;11.714;2023-06-01T03:04:34;8.45;;;5.47;;
62574;SDS011;70119;45.638;11.714;2023-06-01T03:07:00;9.18;;;5.57;;
62574;SDS011;70119;45.638;11.714;2023-06-01T03:09:26;7.90;;;5.65;;
62574;SDS011;70119;45.638;11.714;2023-06-01T03:11:52;8.57;;;5.65;;
62574;SDS011;70119;45.638;11.714;2023-06-01T03:14:18;8.63;;;6.13;;
62574;SDS011;70119;45.638;11.714;2023-06-01T03:16:44;8.77;;;5.55;;
62574;SDS011;70119;45.638;11.714;2023-06-01T03:19:10;8.85;;;5.70;;
62574;SDS011;70119;45.638;11.714;2023-06-01T03:21:36;8.63;;;5.80;;
62574;SDS011;70119;45.638;11.714;2023-06-01T03:24:02;8.32;;;5.57;;
62574;SDS011;70119;45.638;11.714;2023-06-01T03:26:28;8.20;;;5.60;;
62574;SDS011;70119;45.638;11.714;2023-06-01T03:28:54;8.40;;;5.38;;
62574;SDS011;70119;45.638;11.714;2023-06-01T03:31:20;11.32;;;6.03;;
62574;SDS011;70119;45.638;11.714;2023-06-01T03:33:47;8.35;;;5.28;;
62574;SDS011;70119;45.638;11.714;2023-06-01T03:36:13;8.10;;;5.25;;
62574;SDS011;70119;45.638;11.714;2023-06-01T03:38:39;7.70;;;5.30;;
62574;SDS011;70119;45.638;11.714;2023-06-01T03:41:06;9.30;;;5.88;;
62574;SDS011;70119;45.638;11.714;2023-06-01T03:43:32;7.50;;;5.22;;
62574;SDS011;70119;45.638;11.714;2023-06-01T03:45:58;9.23;;;5.47;;
62574;SDS011;70119;45.638;11.714;2023-06-01T03:48:25;9.00;;;5.88;;
62574;SDS011;70119;45.638;11.714;2023-06-01T03:50:51;8.32;;;5.28;;
62574;SDS011;70119;45.638;11.714;2023-06-01T03:53:17;8.88;;;5.70;;
62574;SDS011;70119;45.638;11.714;2023-06-01T03:55:43;9.00;;;5.60;;
62574;SDS011;70119;45.638;11.714;2023-06-01T03:58:10;8.70;;;5.32;;
62574;SDS011;70119;45.638;11.714;2023-06-01T04:00:36;8.70;;;5.78;;
62574;SDS011;70119;45.638;11.714;2023-06-01T04:03:02;8.18;;;5.72;;
62574;SDS011;70119;45.638;11.714;2023-06-01T04:05:32;9.18;;;5.30;;
62574;SDS011;70119;45.638;11.714;2023-06-01T04:07:58;7.70;;;5.50;;
62574;SDS011;70119;45.638;11.714;2023-06-01T04:10:24;9.02;;;5.60;;
62574;SDS011;70119;45.638;11.714;2023-06-01T04:12:50;9.38;;;5.50;;
62574;SDS011;70119;45.638;11.714;2023-06-01T04:15:18;7.53;;;5.40;;
62574;SDS011;70119;45.638;11.714;2023-06-01T04:17:46;8.30;;;5.60;;
62574;SDS011;70119;45.638;11.714;2023-06-01T04:20:13;9.73;;;5.18;;
62574;SDS011;70119;45.638;11.714;2023-06-01T04:22:41;10.10;;;5.85;;
62574;SDS011;70119;45.638;11.714;2023-06-01T04:25:09;8.63;;;5.40;;
62574;SDS011;70119;45.638;11.714;2023-06-01T04:27:43;8.02;;;5.15;;
62574;SDS011;70119;45.638;11.714;2023-06-01T04:30:10;7.47;;;5.40;;
62574;SDS011;70119;45.638;11.714;2023-06-01T04:32:37;7.53;;;5.47;;
62574;SDS011;70119;45.638;11.714;2023-06-01T04:35:04;7.20;;;5.35;;
62574;SDS011;70119;45.638;11.714;2023-06-01T04:37:37;9.02;;;5.32;;
62574;SDS011;70119;45.638;11.714;2023-06-01T04:40:07;8.18;;;5.43;;
62574;SDS011;70119;45.638;11.714;2023-06-01T04:42:40;7.25;;;5.38;;
62574;SDS011;70119;45.638;11.714;2023-06-01T04:45:10;7.75;;;5.53;;
62574;SDS011;70119;45.638;11.714;2023-06-01T04:47:37;7.55;;;5.22;;
62574;SDS011;70119;45.638;11.714;2023-06-01T04:50:08;7.43;;;5.32;;
62574;SDS011;70119;45.638;11.714;2023-06-01T04:52:35;9.02;;;5.70;;
62574;SDS011;70119;45.638;11.714;2023-06-01T04:55:02;9.70;;;5.75;;
62574;SDS011;70119;45.638;11.714;2023-06-01T04:57:30;9.40;;;5.60;;
62574;SDS011;70119;45.638;11.714;2023-06-01T04:59:58;9.15;;;5.43;;
62574;SDS011;70119;45.638;11.714;2023-06-01T05:02:24;10.25;;;5.80;;
62574;SDS011;70119;45.638;11.714;2023-06-01T05:04:51;8.80;;;5.45;;
62574;SDS011;70119;45.638;11.714;2023-06-01T05:07:17;7.55;;;5.15;;
62574;SDS011;70119;45.638;11.714;2023-06-01T05:09:43;9.93;;;5.80;;
62574;SDS011;70119;45.638;11.714;2023-06-01T05:12:09;7.45;;;5.32;;
62574;SDS011;70119;45.638;11.714;2023-06-01T05:14:35;8.65;;;5.40;;
62574;SDS011;70119;45.638;11.714;2023-06-01T05:17:01;9.02;;;5.65;;
62574;SDS011;70119;45.638;11.714;2023-06-01T05:19:28;12.52;;;6.13;;
62574;SDS011;70119;45.638;11.714;2023-06-01T05:21:54;12.30;;;6.85;;
62574;SDS011;70119;45.638;11.714;2023-06-01T05:24:20;17.83;;;6.45;;
62574;SDS011;70119;45.638;11.714;2023-06-01T05:26:46;15.15;;;9.50;;
62574;SDS011;70119;45.638;11.714;2023-06-01T05:29:12;15.18;;;9.80;;
62574;SDS011;70119;45.638;11.714;2023-06-01T05:31:38;14.52;;;9.93;;
62574;SDS011;70119;45.638;11.714;2023-06-01T05:34:05;11.75;;;8.70;;
62574;SDS011;70119;45.638;11.714;2023-06-01T05:36:32;10.57;;;7.57;;
62574;SDS011;70119;45.638;11.714;2023-06-01T05:38:59;10.07;;;6.70;;
62574;SDS011;70119;45.638;11.714;2023-06-01T05:41:25;9.48;;;7.32;;
62574;SDS011;70119;45.638;11.714;2023-06-01T05:43:52;11.43;;;6.90;;
62574;SDS011;70119;45.638;11.714;2023-06-01T05:46:18;10.15;;;7.10;;
62574;SDS011;70119;45.638;11.714;2023-06-01T05:48:45;11.75;;;7.60;;
62574;SDS011;70119;45.638;11.714;2023-06-01T05:51:11;11.52;;;7.72;;
62574;SDS011;70119;45.638;11.714;2023-06-01T05:53:36;14.00;;;9.27;;
62574;SDS011;70119;45.638;11.714;2023-06-01T05:56:02;17.42;;;10.20;;
62574;SDS011;70119;45.638;11.714;2023-06-01T05:58:28;14.80;;;10.40;;
62574;SDS011;70119;45.638;11.714;2023-06-01T06:00:54;13.82;;;9.07;;
62574;SDS011;70119;45.638;11.714;2023-06-01T06:03:21;12.98;;;9.38;;
62574;SDS011;70119;45.638;11.714;2023-06-01T06:05:48;13.82;;;7.47;;
62574;SDS011;70119;45.638;11.714;2023-06-01T06:08:14;11.57;;;8.20;;
62574;SDS011;70119;45.638;11.714;2023-06-01T06:10:40;13.15;;;8.38;;
62574;SDS011;70119;45.638;11.714;2023-06-01T06:13:06;11.85;;;8.32;;
62574;SDS011;70119;45.638;11.714;2023-06-01T06:15:33;11.68;;;7.50;;
62574;SDS011;70119;45.638;11.714;2023-06-01T06:17:58;12.52;;;8.07;;
62574;SDS011;70119;45.638;11.714;2023-06-01T06:20:24;10.02;;;7.30;;
62574;SDS011;70119;45.638;11.714;2023-06-01T06:22:51;10.75;;;7.28;;
62574;SDS011;70119;45.638;11.714;2023-06-01T06:25:18;10.48;;;7.28;;
62574;SDS011;70119;45.638;11.714;2023-06-01T06:27:45;10.10;;;7.38;;
62574;SDS011;70119;45.638;11.714;2023-06-01T06:30:12;10.18;;;6.75;;
62574;SDS011;70119;45.638;11.714;2023-06-01T06:32:38;11.25;;;7.20;;
62574;SDS011;70119;45.638;11.714;2023-06-01T06:35:03;10.73;;;6.80;;
62574;SDS011;70119;45.638;11.714;2023-06-01T06:37:29;10.23;;;7.00;;
62574;SDS011;70119;45.638;11.714;2023-06-01T06:39:55;9.20;;;7.03;;
62574;SDS011;70119;45.638;11.714;2023-06-01T06:42:22;11.45;;;6.70;;
62574;SDS011;70119;45.638;11.714;2023-06-01T06:44:49;10.68;;;6.32;;
62574;SDS011;70119;45.638;11.714;2023-06-01T06:47:15;10.27;;;6.63;;
62574;SDS011;70119;45.638;11.714;2023-06-01T06:49:44;10.07;;;6.55;;
62574;SDS011;70119;45.638;11.714;2023-06-01T06:52:10;9.98;;;6.60;;
62574;SDS011;70119;45.638;11.714;2023-06-01T06:54:39;8.68;;;6.50;;
62574;SDS011;70119;45.638;11.714;2023-06-01T06:57:05;9.43;;;6.32;;
62574;SDS011;70119;45.638;11.714;2023-06-01T06:59:32;10.18;;;6.15;;
62574;SDS011;70119;45.638;11.714;2023-06-01T07:01:58;10.25;;;6.15;;
62574;SDS011;70119;45.638;11.714;2023-06-01T07:04:24;10.13;;;6.35;;
62574;SDS011;70119;45.638;11.714;2023-06-01T07:06:50;11.05;;;6.40;;
62574;SDS011;70119;45.638;11.714;2023-06-01T07:09:17;9.32;;;6.53;;
62574;SDS011;70119;45.638;11.714;2023-06-01T07:11:42;9.48;;;6.88;;
62574;SDS011;70119;45.638;11.714;2023-06-01T07:14:10;10.13;;;6.93;;
62574;SDS011;70119;45.638;11.714;2023-06-01T07:16:37;13.18;;;7.30;;
62574;SDS011;70119;45.638;11.714;2023-06-01T07:19:04;10.65;;;7.32;;
62574;SDS011;70119;45.638;11.714;2023-06-01T07:21:35;10.77;;;7.15;;
62574;SDS011;70119;45.638;11.714;2023-06-01T07:24:04;10.63;;;7.00;;
62574;SDS011;70119;45.638;11.714;2023-06-01T07:26:36;11.63;;;7.90;;
62574;SDS011;70119;45.638;11.714;2023-06-01T07:29:04;12.55;;;7.47;;
62574;SDS011;70119;45.638;11.714;2023-06-01T07:31:33;10.70;;;6.72;;
62574;SDS011;70119;45.638;11.714;2023-06-01T07:34:03;11.60;;;8.00;;
62574;SDS011;70119;45.638;11.714;2023-06-01T07:36:30;13.60;;;8.07;;
62574;SDS011;70119;45.638;11.714;2023-06-01T07:39:05;11.43;;;7.43;;
62574;SDS011;70119;45.638;11.714;2023-06-01T07:41:34;13.43;;;8.35;;
62574;SDS011;70119;45.638;11.714;2023-06-01T07:44:00;12.82;;;7.63;;
62574;SDS011;70119;45.638;11.714;2023-06-01T07:46:27;10.93;;;7.57;;
62574;SDS011;70119;45.638;11.714;2023-06-01T07:48:53;12.52;;;7.65;;
62574;SDS011;70119;45.638;11.714;2023-06-01T07:51:18;10.95;;;7.78;;
62574;SDS011;70119;45.638;11.714;2023-06-01T07:53:44;11.20;;;7.30;;
62574;SDS011;70119;45.638;11.714;2023-06-01T07:56:10;10.05;;;7.22;;
62574;SDS011;70119;45.638;11.714;2023-06-01T07:58:36;10.00;;;6.88;;
62574;SDS011;70119;45.638;11.714;2023-06-01T08:01:03;11.88;;;7.38;;
62574;SDS011;70119;45.638;11.714;2023-06-01T08:03:30;11.80;;;7.20;;
62574;SDS011;70119;45.638;11.714;2023-06-01T08:06:01;10.48;;;6.70;;
62574;SDS011;70119;45.638;11.714;2023-06-01T08:08:27;9.07;;;6.88;;
62574;SDS011;70119;45.638;11.714;2023-06-01T08:10:54;9.25;;;6.40;;
62574;SDS011;70119;45.638;11.714;2023-06-01T08:13:20;8.65;;;6.40;;
62574;SDS011;70119;45.638;11.714;2023-06-01T08:15:46;10.18;;;6.38;;
62574;SDS011;70119;45.638;11.714;2023-06-01T08:18:13;9.40;;;6.57;;
62574;SDS011;70119;45.638;11.714;2023-06-01T08:20:39;10.68;;;6.75;;
62574;SDS011;70119;45.638;11.714;2023-06-01T08:23:07;8.35;;;6.10;;
62574;SDS011;70119;45.638;11.714;2023-06-01T08:25:33;9.98;;;6.25;;
62574;SDS011;70119;45.638;11.714;2023-06-01T08:27:59;10.45;;;5.97;;
62574;SDS011;70119;45.638;11.714;2023-06-01T08:30:25;11.27;;;6.22;;
62574;SDS011;70119;45.638;11.714;2023-06-01T08:32:51;8.70;;;5.93;;
62574;SDS011;70119;45.638;11.714;2023-06-01T08:35:18;10.32;;;6.30;;
62574;SDS011;70119;45.638;11.714;2023-06-01T08:37:44;9.15;;;6.25;;
62574;SDS011;70119;45.638;11.714;2023-06-01T08:40:13;9.30;;;6.18;;
62574;SDS011;70119;45.638;11.714;2023-06-01T08:45:27;8.55;;;5.80;;
62574;SDS011;70119;45.638;11.714;2023-06-01T08:47:54;9.10;;;5.80;;
62574;SDS011;70119;45.638;11.714;2023-06-01T08:50:22;9.68;;;5.68;;
62574;SDS011;70119;45.638;11.714;2023-06-01T08:52:49;8.65;;;5.65;;
62574;SDS011;70119;45.638;11.714;2023-06-01T08:55:18;11.23;;;6.25;;
62574;SDS011;70119;45.638;11.714;2023-06-01T08:57:45;9.68;;;6.18;;
62574;SDS011;70119;45.638;11.714;2023-06-01T09:00:12;12.00;;;7.20;;
62574;SDS011;70119;45.638;11.714;2023-06-01T09:02:39;9.30;;;6.38;;
62574;SDS011;70119;45.638;11.714;2023-06-01T09:05:08;11.10;;;5.97;;
62574;SDS011;70119;45.638;11.714;2023-06-01T09:07:35;9.70;;;6.40;;
62574;SDS011;70119;45.638;11.714;2023-06-01T09:10:01;10.40;;;5.75;;
62574;SDS011;70119;45.638;11.714;2023-06-01T09:12:29;8.65;;;5.82;;
62574;SDS011;70119;45.638;11.714;2023-06-01T09:15:12;10.70;;;6.03;;
62574;SDS011;70119;45.638;11.714;2023-06-01T09:17:43;8.73;;;6.05;;
62574;SDS011;70119;45.638;11.714;2023-06-01T09:20:14;8.63;;;6.13;;
62574;SDS011;70119;45.638;11.714;2023-06-01T09:22:47;8.70;;;6.00;;
62574;SDS011;70119;45.638;11.714;2023-06-01T09:25:13;10.52;;;6.93;;
62574;SDS011;70119;45.638;11.714;2023-06-01T09:27:46;11.00;;;6.70;;
62574;SDS011;70119;45.638;11.714;2023-06-01T09:30:17;10.07;;;6.43;;
62574;SDS011;70119;45.638;11.714;2023-06-01T09:32:45;11.52;;;7.30;;
62574;SDS011;70119;45.638;11.714;2023-06-01T09:35:36;10.68;;;7.20;;
62574;SDS011;70119;45.638;11.714;2023-06-01T09:38:02;8.93;;;6.60;;
62574;SDS011;70119;45.638;11.714;2023-06-01T09:40:31;9.35;;;6.03;;
62574;SDS011;70119;45.638;11.714;2023-06-01T09:42:58;10.38;;;5.82;;
62574;SDS011;70119;45.638;11.714;2023-06-01T09:45:24;7.90;;;5.82;;
62574;SDS011;70119;45.638;11.714;2023-06-01T09:47:51;7.93;;;5.90;;
62574;SDS011;70119;45.638;11.714;2023-06-01T09:50:34;9.57;;;6.22;;
62574;SDS011;70119;45.638;11.714;2023-06-01T09:53:01;9.70;;;6.38;;
62574;SDS011;70119;45.638;11.714;2023-06-01T09:55:27;11.48;;;6.50;;
62574;SDS011;70119;45.638;11.714;2023-06-01T09:58:16;9.00;;;6.18;;
62574;SDS011;70119;45.638;11.714;2023-06-01T10:00:46;10.13;;;5.90;;
62574;SDS011;70119;45.638;11.714;2023-06-01T10:03:14;8.20;;;5.70;;
62574;SDS011;70119;45.638;11.714;2023-06-01T10:05:44;8.05;;;6.07;;
62574;SDS011;70119;45.638;11.714;2023-06-01T10:08:12;9.20;;;6.38;;
62574;SDS011;70119;45.638;11.714;2023-06-01T10:10:43;10.20;;;7.22;;
62574;SDS011;70119;45.638;11.714;2023-06-01T10:13:10;10.07;;;6.47;;
62574;SDS011;70119;45.638;11.714;2023-06-01T10:15:37;9.05;;;5.75;;
62574;SDS011;70119;45.638;11.714;2023-06-01T10:18:03;11.00;;;6.78;;
62574;SDS011;70119;45.638;11.714;2023-06-01T10:20:33;12.15;;;7.47;;
62574;SDS011;70119;45.638;11.714;2023-06-01T10:23:00;9.82;;;8.00;;
62574;SDS011;70119;45.638;11.714;2023-06-01T10:25:32;10.95;;;7.50;;
62574;SDS011;70119;45.638;11.714;2023-06-01T10:28:09;9.27;;;6.50;;
62574;SDS011;70119;45.638;11.714;2023-06-01T10:30:36;8.63;;;6.10;;
62574;SDS011;70119;45.638;11.714;2023-06-01T10:33:02;11.38;;;5.68;;
62574;SDS011;70119;45.638;11.714;2023-06-01T10:40:38;11.57;;;8.60;;
62574;SDS011;70119;45.638;11.714;2023-06-01T10:43:53;12.05;;;8.70;;
62574;SDS011;70119;45.638;11.714;2023-06-01T10:46:50;11.68;;;8.73;;
62574;SDS011;70119;45.638;11.714;2023-06-01T10:49:05;11.70;;;8.63;;
62574;SDS011;70119;45.638;11.714;2023-06-01T10:51:31;10.57;;;7.60;;
62574;SDS011;70119;45.638;11.714;2023-06-01T11:03:03;9.40;;;6.70;;
62574;SDS011;70119;45.638;11.714;2023-06-01T11:10:54;9.43;;;6.40;;
62574;SDS011;70119;45.638;11.714;2023-06-01T11:13:30;9.75;;;6.60;;
62574;SDS011;70119;45.638;11.714;2023-06-01T11:21:16;10.77;;;7.13;;
62574;SDS011;70119;45.638;11.714;2023-06-01T11:23:44;10.88;;;6.95;;
62574;SDS011;70119;45.638;11.714;2023-06-01T11:26:13;11.32;;;7.00;;
62574;SDS011;70119;45.638;11.714;2023-06-01T11:28:43;10.38;;;6.90;;
62574;SDS011;70119;45.638;11.714;2023-06-01T11:31:10;14.88;;;6.85;;
62574;SDS011;70119;45.638;11.714;2023-06-01T11:33:38;12.15;;;6.70;;
62574;SDS011;70119;45.638;11.714;2023-06-01T11:36:06;13.40;;;6.45;;
62574;SDS011;70119;45.638;11.714;2023-06-01T11:38:41;10.00;;;6.22;;
62574;SDS011;70119;45.638;11.714;2023-06-01T11:41:08;9.18;;;6.45;;
62574;SDS011;70119;45.638;11.714;2023-06-01T11:43:35;10.60;;;6.55;;
62574;SDS011;70119;45.638;11.714;2023-06-01T11:46:07;10.23;;;6.47;;
62574;SDS011;70119;45.638;11.714;2023-06-01T11:48:37;10.65;;;5.90;;
62574;SDS011;70119;45.638;11.714;2023-06-01T11:51:03;11.05;;;6.18;;
62574;SDS011;70119;45.638;11.714;2023-06-01T11:53:30;9.15;;;6.07;;
62574;SDS011;70119;45.638;11.714;2023-06-01T11:55:59;9.45;;;6.45;;
62574;SDS011;70119;45.638;11.714;2023-06-01T11:58:28;9.45;;;5.97;;
62574;SDS011;70119;45.638;11.714;2023-06-01T12:00:56;10.32;;;6.00;;
62574;SDS011;70119;45.638;11.714;2023-06-01T12:03:23;8.68;;;6.30;;
62574;SDS011;70119;45.638;11.714;2023-06-01T12:05:50;10.32;;;6.53;;
62574;SDS011;70119;45.638;11.714;2023-06-01T12:08:20;9.25;;;6.30;;
62574;SDS011;70119;45.638;11.714;2023-06-01T12:10:50;8.02;;;5.88;;
62574;SDS011;70119;45.638;11.714;2023-06-01T12:13:19;8.75;;;6.57;;
62574;SDS011;70119;45.638;11.714;2023-06-01T12:15:45;10.40;;;6.45;;
62574;SDS011;70119;45.638;11.714;2023-06-01T12:18:12;10.55;;;6.80;;
62574;SDS011;70119;45.638;11.714;2023-06-01T12:20:39;10.43;;;7.03;;
62574;SDS011;70119;45.638;11.714;2023-06-01T12:23:15;8.67;;;6.57;;
62574;SDS011;70119;45.638;11.714;2023-06-01T12:25:50;9.63;;;6.28;;
62574;SDS011;70119;45.638;11.714;2023-06-01T12:28:22;10.23;;;6.10;;
62574;SDS011;70119;45.638;11.714;2023-06-01T12:30:51;9.20;;;6.22;;
62574;SDS011;70119;45.638;11.714;2023-06-01T12:33:38;9.93;;;6.57;;
62574;SDS011;70119;45.638;11.714;2023-06-01T12:36:06;10.30;;;6.40;;
62574;SDS011;70119;45.638;11.714;2023-06-01T12:41:09;8.57;;;5.95;;
62574;SDS011;70119;45.638;11.714;2023-06-01T12:43:43;9.98;;;5.72;;
62574;SDS011;70119;45.638;11.714;2023-06-01T12:46:26;8.82;;;5.63;;
62574;SDS011;70119;45.638;11.714;2023-06-01T12:49:13;7.90;;;5.72;;
62574;SDS011;70119;45.638;11.714;2023-06-01T12:51:42;9.60;;;6.30;;
62574;SDS011;70119;45.638;11.714;2023-06-01T12:54:08;8.80;;;6.03;;
62574;SDS011;70119;45.638;11.714;2023-06-01T12:56:34;10.07;;;6.30;;
62574;SDS011;70119;45.638;11.714;2023-06-01T12:59:00;9.93;;;6.32;;
62574;SDS011;70119;45.638;11.714;2023-06-01T13:01:26;8.23;;;6.00;;
62574;SDS011;70119;45.638;11.714;2023-06-01T13:03:53;10.13;;;6.05;;
62574;SDS011;70119;45.638;11.714;2023-06-01T13:06:19;8.98;;;6.30;;
62574;SDS011;70119;45.638;11.714;2023-06-01T13:08:45;9.50;;;5.63;;
62574;SDS011;70119;45.638;11.714;2023-06-01T13:11:12;8.73;;;6.25;;
62574;SDS011;70119;45.638;11.714;2023-06-01T13:13:38;8.77;;;6.15;;
62574;SDS011;70119;45.638;11.714;2023-06-01T13:16:04;8.73;;;6.28;;
62574;SDS011;70119;45.638;11.714;2023-06-01T13:18:32;8.50;;;6.20;;
62574;SDS011;70119;45.638;11.714;2023-06-01T13:20:58;7.68;;;5.80;;
62574;SDS011;70119;45.638;11.714;2023-06-01T13:23:24;8.48;;;5.78;;
62574;SDS011;70119;45.638;11.714;2023-06-01T13:25:50;8.27;;;5.90;;
62574;SDS011;70119;45.638;11.714;2023-06-01T13:28:16;8.48;;;6.30;;
62574;SDS011;70119;45.638;11.714;2023-06-01T13:30:42;9.18;;;5.97;;
62574;SDS011;70119;45.638;11.714;2023-06-01T13:33:08;7.88;;;5.80;;
62574;SDS011;70119;45.638;11.714;2023-06-01T13:35:34;8.20;;;5.97;;
62574;SDS011;70119;45.638;11.714;2023-06-01T13:38:01;8.40;;;6.07;;
62574;SDS011;70119;45.638;11.714;2023-06-01T13:40:27;7.32;;;5.38;;
62574;SDS011;70119;45.638;11.714;2023-06-01T13:42:53;7.97;;;5.78;;
62574;SDS011;70119;45.638;11.714;2023-06-01T13:45:20;8.82;;;6.00;;
62574;SDS011;70119;45.638;11.714;2023-06-01T13:47:46;8.88;;;5.95;;
62574;SDS011;70119;45.638;11.714;2023-06-01T13:50:14;8.15;;;6.00;;
62574;SDS011;70119;45.638;11.714;2023-06-01T13:52:40;7.68;;;5.80;;
62574;SDS011;70119;45.638;11.714;2023-06-01T13:55:07;8.65;;;5.95;;
62574;SDS011;70119;45.638;11.714;2023-06-01T13:57:34;9.43;;;5.88;;
62574;SDS011;70119;45.638;11.714;2023-06-01T14:00:02;7.43;;;5.57;;
62574;SDS011;70119;45.638;11.714;2023-06-01T14:02:28;7.95;;;5.38;;
62574;SDS011;70119;45.638;11.714;2023-06-01T14:04:55;7.47;;;5.53;;
62574;SDS011;70119;45.638;11.714;2023-06-01T14:07:21;10.77;;;5.80;;
62574;SDS011;70119;45.638;11.714;2023-06-01T14:09:47;8.15;;;5.70;;
62574;SDS011;70119;45.638;11.714;2023-06-01T14:12:13;7.97;;;5.43;;
62574;SDS011;70119;45.638;11.714;2023-06-01T14:14:39;8.38;;;5.78;;
62574;SDS011;70119;45.638;11.714;2023-06-01T14:17:05;7.70;;;5.57;;
62574;SDS011;70119;45.638;11.714;2023-06-01T14:19:31;8.05;;;5.60;;
62574;SDS011;70119;45.638;11.714;2023-06-01T14:21:58;8.32;;;5.60;;
62574;SDS011;70119;45.638;11.714;2023-06-01T14:24:23;7.68;;;5.30;;
62574;SDS011;70119;45.638;11.714;2023-06-01T14:26:49;7.25;;;5.30;;
62574;SDS011;70119;45.638;11.714;2023-06-01T14:29:15;7.63;;;5.55;;
62574;SDS011;70119;45.638;11.714;2023-06-01T14:31:41;9.50;;;5.40;;
62574;SDS011;70119;45.638;11.714;2023-06-01T14:34:07;7.38;;;5.53;;
62574;SDS011;70119;45.638;11.714;2023-06-01T14:36:33;7.72;;;5.25;;
62574;SDS011;70119;45.638;11.714;2023-06-01T14:38:59;7.47;;;5.40;;
62574;SDS011;70119;45.638;11.714;2023-06-01T14:41:25;8.73;;;5.45;;
62574;SDS011;70119;45.638;11.714;2023-06-01T14:43:51;8.60;;;5.35;;
62574;SDS011;70119;45.638;11.714;2023-06-01T14:46:17;6.43;;;5.18;;
62574;SDS011;70119;45.638;11.714;2023-06-01T14:48:46;7.30;;;5.07;;
62574;SDS011;70119;45.638;11.714;2023-06-01T14:51:12;11.40;;;5.90;;
62574;SDS011;70119;45.638;11.714;2023-06-01T14:53:38;8.80;;;5.28;;
62574;SDS011;70119;45.638;11.714;2023-06-01T14:56:06;6.50;;;4.70;;
62574;SDS011;70119;45.638;11.714;2023-06-01T14:58:34;8.23;;;4.95;;
62574;SDS011;70119;45.638;11.714;2023-06-01T15:01:00;6.50;;;4.97;;
62574;SDS011;70119;45.638;11.714;2023-06-01T15:03:26;8.15;;;5.07;;
62574;SDS011;70119;45.638;11.714;2023-06-01T15:05:51;7.05;;;5.10;;
62574;SDS011;70119;45.638;11.714;2023-06-01T15:08:17;7.55;;;5.30;;
62574;SDS011;70119;45.638;11.714;2023-06-01T15:10:47;7.15;;;5.07;;
62574;SDS011;70119;45.638;11.714;2023-06-01T15:13:13;6.63;;;5.15;;
62574;SDS011;70119;45.638;11.714;2023-06-01T15:15:39;6.75;;;4.80;;
62574;SDS011;70119;45.638;11.714;2023-06-01T15:18:06;6.18;;;4.85;;
62574;SDS011;70119;45.638;11.714;2023-06-01T15:20:32;7.53;;;5.40;;